Terminal Aerodrome Forecast
Issued by NWS

Home | Current Version | Previous Version | Text Only | Print | Product List | Glossary On
Versions: 1 2 3 4 5 6 7 8 9 10 11 12
000
FTAK31 PAJN 032335
TAFAYA
TAF
PAYA 032335Z 0400/0424 25006KT P6SM BKN200
     FM040400 08004KT P6SM OVC100
     FM040800 09006KT P6SM -RA SCT020 OVC060
     FM041500 09008KT 6SM -RA SCT020 OVC040
     FM042000 09010G17KT 4SM RA BR OVC025 WS020/13025KT
      AMD LTD TO CLD VIS AND WIND 0401/0410=

USA.gov is the U.S. government's official web portal to all federal, state and local government web resources and services.